createdAt,value
2019-03-02T03:35:15.729Z,1016.3
2019-03-02T03:40:00.966Z,1016.4
2019-03-02T03:45:04.410Z,1016.4
2019-03-02T03:50:02.319Z,1016.3
2019-03-02T03:55:00.917Z,1016.3
2019-03-02T04:00:01.053Z,1016.2
2019-03-02T04:05:07.163Z,1016.2
2019-03-02T04:10:00.822Z,1016.2
2019-03-02T04:15:01.534Z,1016.1
2019-03-02T04:20:00.949Z,1016.1
2019-03-02T04:25:01.069Z,1016
2019-03-02T04:30:01.200Z,1016
2019-03-02T04:35:01.057Z,1016
2019-03-02T04:40:00.865Z,1015.9
2019-03-02T04:45:01.670Z,1015.9
2019-03-02T04:50:00.797Z,1015.8
2019-03-02T04:55:00.829Z,1015.7
2019-03-02T05:00:00.964Z,1015.7
2019-03-02T05:05:00.769Z,1015.6
2019-03-02T05:10:00.961Z,1015.5
2019-03-02T05:15:00.818Z,1015.5
2019-03-02T05:20:04.591Z,1015.5
2019-03-02T05:25:00.688Z,1015.4
2019-03-02T05:30:01.000Z,1015.4
2019-03-02T05:35:00.844Z,1015.3
2019-03-02T05:40:00.744Z,1015.2
2019-03-02T05:45:00.953Z,1015.2
2019-03-02T05:50:00.919Z,1015.1
2019-03-02T05:55:00.950Z,1015.2
2019-03-02T06:00:01.813Z,1015.1
2019-03-02T06:05:00.947Z,1015
2019-03-02T06:10:00.895Z,1015.1
2019-03-02T06:15:03.976Z,1015
2019-03-02T06:20:00.651Z,1014.9
2019-03-02T06:25:00.759Z,1014.8
2019-03-02T06:30:00.885Z,1014.8
2019-03-02T06:35:00.635Z,1014.8
2019-03-02T06:40:00.926Z,1014.8
2019-03-02T06:45:00.689Z,1014.8
2019-03-02T06:50:00.841Z,1014.7
2019-03-02T06:55:00.815Z,1014.7
2019-03-02T07:00:01.050Z,1014.7
2019-03-02T07:05:00.656Z,1014.7
2019-03-02T07:10:00.769Z,1014.8
2019-03-02T07:15:00.842Z,1014.8
2019-03-02T07:20:00.768Z,1014.8
2019-03-02T07:25:01.550Z,1014.7
2019-03-02T07:30:00.486Z,1014.7
2019-03-02T07:35:00.725Z,1014.7
2019-03-02T07:40:00.766Z,1014.7
2019-03-02T07:45:00.745Z,1014.6
2019-03-02T07:50:00.494Z,1014.6
2019-03-02T07:55:00.486Z,1014.6
2019-03-02T08:00:02.314Z,1014.6
2019-03-02T08:05:00.602Z,1014.6
2019-03-02T08:10:02.015Z,1014.7
2019-03-02T08:15:00.503Z,1014.8
2019-03-02T08:20:00.484Z,1014.8
2019-03-02T08:25:00.444Z,1014.7
2019-03-02T08:30:00.681Z,1014.7
2019-03-02T08:35:56.058Z,1014.7
2019-03-02T08:45:01.867Z,1014.7
2019-03-02T08:50:00.446Z,1014.7
2019-03-02T08:55:00.616Z,1014.6
2019-03-02T09:00:00.385Z,1014.6
2019-03-02T09:05:00.626Z,1014.5
2019-03-02T09:10:00.426Z,1014.5
2019-03-02T09:15:00.604Z,1014.4
2019-03-02T09:20:00.835Z,1014.3
2019-03-02T09:25:00.553Z,1014.2
2019-03-02T09:30:00.421Z,1014.2
2019-03-02T09:35:00.669Z,1014
2019-03-02T09:40:00.457Z,1014
2019-03-02T09:45:00.358Z,1013.9
2019-03-02T09:50:00.598Z,1013.8
2019-03-02T09:55:00.432Z,1013.8
2019-03-02T10:00:00.610Z,1013.8
2019-03-02T10:05:00.457Z,1013.7
2019-03-02T10:10:00.290Z,1013.7
2019-03-02T10:15:00.758Z,1013.6
2019-03-02T10:20:00.991Z,1013.6
2019-03-02T10:25:00.470Z,1013.6
2019-03-02T10:30:00.269Z,1013.6
2019-03-02T10:35:00.459Z,1013.4
2019-03-02T10:40:00.336Z,1013.3
2019-03-02T10:45:00.286Z,1013.3
2019-03-02T10:50:00.490Z,1013.1
2019-03-02T10:55:00.391Z,1013
2019-03-02T11:00:00.282Z,1013
2019-03-02T11:05:00.502Z,1012.9
2019-03-02T11:10:00.709Z,1013
2019-03-02T11:15:00.361Z,1013
2019-03-02T11:20:00.240Z,1013
2019-03-02T11:25:00.333Z,1013
2019-03-02T11:30:00.270Z,1012.9
2019-03-02T11:35:00.304Z,1012.8
2019-03-02T11:40:00.381Z,1012.8
2019-03-02T11:45:00.278Z,1012.8
2019-03-02T11:50:00.349Z,1012.7
2019-03-02T11:55:00.945Z,1012.7
2019-03-02T12:00:00.278Z,1012.7
2019-03-02T12:05:00.324Z,1012.8
2019-03-02T12:10:01.019Z,1012.6
2019-03-02T12:15:00.296Z,1012.6
2019-03-02T12:20:02.637Z,1012.5
2019-03-02T12:25:00.449Z,1012.4
2019-03-02T12:30:00.411Z,1012.4
2019-03-02T12:35:00.101Z,1012.3
2019-03-02T12:40:02.865Z,1012.2
2019-03-02T12:45:00.418Z,1012.1
2019-03-02T12:50:00.353Z,1012
2019-03-02T12:55:00.350Z,1011.9
2019-03-02T13:00:00.472Z,1011.9
2019-03-02T13:05:00.374Z,1011.9
2019-03-02T13:10:00.201Z,1011.7
2019-03-02T13:14:59.997Z,1011.8
2019-03-02T13:20:02.754Z,1011.8
2019-03-02T13:25:00.253Z,1011.8
2019-03-02T13:30:00.038Z,1011.6
2019-03-02T13:34:59.928Z,1011.5
2019-03-02T13:40:00.328Z,1011.4
2019-03-02T13:45:00.327Z,1011.4
2019-03-02T13:49:59.961Z,1011.4
2019-03-02T13:55:00.353Z,1011.3
2019-03-02T14:00:03.439Z,1011.2
2019-03-02T14:05:05.038Z,1011.2
2019-03-02T14:10:00.289Z,1011.3
2019-03-02T14:15:00.055Z,1011.3
2019-03-02T14:20:01.829Z,1011.3
2019-03-02T14:24:59.891Z,1011.2
2019-03-02T14:30:00.272Z,1011.1
2019-03-02T14:35:00.017Z,1011.1
2019-03-02T14:39:59.821Z,1011.1
2019-03-02T14:45:00.410Z,1011.1
2019-03-02T14:50:01.939Z,1011
2019-03-02T14:54:59.870Z,1011.1
2019-03-02T15:00:00.305Z,1011.1
2019-03-02T15:05:00.251Z,1011
2019-03-02T15:09:59.901Z,1011
2019-03-02T15:15:00.268Z,1011
2019-03-02T15:19:59.971Z,1011
2019-03-02T15:24:59.796Z,1010.9
2019-03-02T15:30:00.325Z,1011
2019-03-02T15:34:59.936Z,1010.9
2019-03-02T15:40:00.164Z,1010.9
2019-03-02T15:45:00.021Z,1010.9
2019-03-02T15:49:59.870Z,1010.8
2019-03-02T15:54:59.744Z,1010.8
2019-03-02T15:59:59.931Z,1010.7
2019-03-02T16:04:59.822Z,1010.7
2019-03-02T16:10:00.913Z,1010.7
2019-03-02T16:15:00.091Z,1010.7
2019-03-02T16:20:02.431Z,1010.7
2019-03-02T16:25:00.728Z,1010.6
2019-03-02T16:29:59.955Z,1010.6
2019-03-02T16:34:59.890Z,1010.5
2019-03-02T16:39:59.752Z,1010.5
2019-03-02T16:44:59.774Z,1010.4
2019-03-02T16:49:59.661Z,1010.5
2019-03-02T16:55:00.174Z,1010.4
2019-03-02T16:59:59.971Z,1010.4
2019-03-02T17:04:59.717Z,1010.4
2019-03-02T17:10:00.014Z,1010.4
2019-03-02T17:14:59.893Z,1010.4
2019-03-02T17:20:01.338Z,1010.3
2019-03-02T17:24:59.880Z,1010.3
2019-03-02T17:29:59.809Z,1010.3
2019-03-02T17:34:59.795Z,1010.4
2019-03-02T17:40:01.195Z,1010.4
2019-03-02T17:45:00.404Z,1010.5
2019-03-02T17:49:59.674Z,1010.5
2019-03-02T17:54:59.665Z,1010.5
2019-03-02T17:59:59.883Z,1010.6
2019-03-02T18:04:59.856Z,1010.6
2019-03-02T18:10:01.094Z,1010.6
2019-03-02T18:14:59.755Z,1010.5
2019-03-02T18:19:59.554Z,1010.6
2019-03-02T18:24:59.515Z,1010.6
2019-03-02T18:30:02.304Z,1010.7
2019-03-02T18:35:00.087Z,1010.8
2019-03-02T18:40:02.407Z,1010.7
2019-03-02T18:45:02.488Z,1010.7
2019-03-02T18:49:59.675Z,1010.7
2019-03-02T18:54:59.624Z,1010.8
2019-03-02T18:59:59.814Z,1010.7
2019-03-02T19:04:59.470Z,1010.7
2019-03-02T19:09:59.775Z,1010.8
2019-03-02T19:14:59.587Z,1010.8
2019-03-02T19:19:59.443Z,1010.7
2019-03-02T19:24:59.404Z,1010.8
2019-03-02T19:29:59.706Z,1010.8
2019-03-02T19:34:59.567Z,1010.8
2019-03-02T19:39:59.729Z,1010.7
2019-03-02T19:44:59.572Z,1010.8
2019-03-02T19:49:59.398Z,1010.8
2019-03-02T19:54:59.623Z,1010.8
2019-03-02T19:59:59.492Z,1010.7
2019-03-02T20:04:59.453Z,1010.7
2019-03-02T20:09:59.356Z,1010.5
2019-03-02T20:14:59.315Z,1010.5
2019-03-02T20:19:59.591Z,1010.4
2019-03-02T20:24:59.487Z,1010.4
2019-03-02T20:29:59.372Z,1010.3
2019-03-02T20:34:59.594Z,1010.3
2019-03-02T20:39:59.375Z,1010.2
2019-03-02T20:44:59.321Z,1010.2
2019-03-02T20:49:59.579Z,1010.3
2019-03-02T20:54:59.449Z,1010.2
2019-03-02T20:59:59.305Z,1010.2
2019-03-02T21:04:59.487Z,1010.1
2019-03-02T21:09:59.312Z,1010
2019-03-02T21:14:59.263Z,1010
2019-03-02T21:19:59.434Z,1010.1
2019-03-02T21:24:59.247Z,1010
2019-03-02T21:29:59.567Z,1009.9
2019-03-02T21:34:59.394Z,1009.8
2019-03-02T21:39:59.237Z,1009.7
2019-03-02T21:44:59.532Z,1009.7
2019-03-02T21:49:59.240Z,1009.6
2019-03-02T21:54:59.226Z,1009.5
2019-03-02T21:59:59.407Z,1009.5
2019-03-02T22:04:59.319Z,1009.4
2019-03-02T22:09:59.165Z,1009.3
2019-03-02T22:14:59.427Z,1009.2
2019-03-02T22:19:59.259Z,1009.1
2019-03-02T22:24:59.120Z,1009
2019-03-02T22:29:59.371Z,1009
2019-03-02T22:34:59.227Z,1009
2019-03-02T22:39:59.451Z,1009
2019-03-02T22:44:59.334Z,1009
2019-03-02T22:49:59.151Z,1009
2019-03-02T22:54:59.078Z,1009
2019-03-02T22:59:59.251Z,1009
2019-03-02T23:04:59.279Z,1009
2019-03-02T23:09:59.165Z,1009
2019-03-02T23:14:59.443Z,1008.9
2019-03-02T23:19:59.230Z,1008.9
2019-03-02T23:24:59.396Z,1008.9
2019-03-02T23:29:59.174Z,1008.9
2019-03-02T23:34:59.167Z,1008.7
2019-03-02T23:39:59.377Z,1008.7
2019-03-02T23:44:59.250Z,1008.8
2019-03-02T23:49:59.116Z,1008.7
2019-03-02T23:54:59.036Z,1008.6
2019-03-02T23:59:59.334Z,1008.6
